createdAt,value
2017-10-05T00:00:53.101Z,64.80
2017-10-05T00:03:20.589Z,65.10
2017-10-05T00:05:48.061Z,65.10
2017-10-05T00:08:15.521Z,65.20
2017-10-05T00:10:43.002Z,65.30
2017-10-05T00:13:10.467Z,65.50
2017-10-05T00:15:37.922Z,65.70
2017-10-05T00:18:05.404Z,65.70
2017-10-05T00:20:33.633Z,65.70
2017-10-05T00:23:01.086Z,65.70
2017-10-05T00:25:28.606Z,65.80
2017-10-05T00:27:56.052Z,65.70
2017-10-05T00:30:27.507Z,65.70
2017-10-05T00:32:55.745Z,66.50
2017-10-05T00:35:23.386Z,65.70
2017-10-05T00:37:50.834Z,65.80
2017-10-05T00:40:18.372Z,65.80
2017-10-05T00:42:45.825Z,65.70
2017-10-05T00:45:13.313Z,65.60
2017-10-05T00:47:40.774Z,65.60
2017-10-05T00:50:08.231Z,65.50
2017-10-05T00:52:35.705Z,65.40
2017-10-05T00:55:03.192Z,65.30
2017-10-05T00:57:30.665Z,65.20
2017-10-05T00:59:58.576Z,65.30
2017-10-05T01:02:26.026Z,65.20
2017-10-05T01:04:53.476Z,65.00
2017-10-05T01:07:20.961Z,64.90
2017-10-05T01:09:48.449Z,64.80
2017-10-05T01:12:15.906Z,64.60
2017-10-05T01:14:44.173Z,64.40
2017-10-05T01:17:11.630Z,64.40
2017-10-05T01:19:39.086Z,64.30
2017-10-05T01:22:06.562Z,64.20
2017-10-05T01:24:34.012Z,64.30
2017-10-05T01:27:01.503Z,64.40
2017-10-05T01:29:29.905Z,64.80
2017-10-05T01:31:57.378Z,64.90
2017-10-05T01:34:24.866Z,65.20
2017-10-05T01:36:52.318Z,65.30
2017-10-05T01:39:19.785Z,65.70
2017-10-05T01:41:47.256Z,65.90
2017-10-05T01:44:15.482Z,66.80
2017-10-05T01:46:42.978Z,66.70
2017-10-05T01:49:11.213Z,66.60
2017-10-05T01:51:38.677Z,67.30
2017-10-05T01:54:06.921Z,67.80
2017-10-05T01:56:34.368Z,67.80
2017-10-05T01:59:01.824Z,68.00
2017-10-05T02:01:29.641Z,68.10
2017-10-05T02:03:57.097Z,68.20
2017-10-05T02:06:24.570Z,68.40
2017-10-05T02:08:52.034Z,68.50
2017-10-05T02:11:19.517Z,68.50
2017-10-05T02:13:46.969Z,68.70
2017-10-05T02:16:14.424Z,68.70
2017-10-05T02:18:41.908Z,68.90
2017-10-05T02:21:09.357Z,68.90
2017-10-05T02:23:36.825Z,69.10
2017-10-05T02:26:04.283Z,69.20
2017-10-05T02:28:31.758Z,69.30
2017-10-05T02:30:59.207Z,69.40
2017-10-05T02:33:26.685Z,69.40
2017-10-05T02:35:54.497Z,69.40
2017-10-05T02:38:22.280Z,69.40
2017-10-05T02:40:50.672Z,69.40
2017-10-05T02:43:18.153Z,69.40
2017-10-05T02:45:45.618Z,69.30
2017-10-05T02:48:13.107Z,69.40
2017-10-05T02:50:40.561Z,69.30
2017-10-05T02:53:08.025Z,69.40
2017-10-05T02:55:35.522Z,69.40
2017-10-05T02:58:02.997Z,69.50
2017-10-05T03:00:31.640Z,69.80
2017-10-05T03:02:59.857Z,69.70
2017-10-05T03:05:27.357Z,69.50
2017-10-05T03:07:54.821Z,69.70
2017-10-05T03:10:22.282Z,69.70
2017-10-05T03:12:49.815Z,69.70
2017-10-05T03:15:17.276Z,69.70
2017-10-05T03:17:44.726Z,69.80
2017-10-05T03:20:12.202Z,69.90
2017-10-05T03:22:39.657Z,69.80
2017-10-05T03:25:07.148Z,70.00
2017-10-05T03:27:34.618Z,70.00
2017-10-05T03:30:02.154Z,70.00
2017-10-05T03:32:30.406Z,70.10
2017-10-05T03:34:57.856Z,70.10
2017-10-05T03:37:25.405Z,70.30
2017-10-05T03:39:52.874Z,70.40
2017-10-05T03:42:20.336Z,70.40
2017-10-05T03:44:47.814Z,70.60
2017-10-05T03:47:15.301Z,70.60
2017-10-05T03:49:42.757Z,70.60
2017-10-05T03:52:10.218Z,70.60
2017-10-05T03:54:37.694Z,70.80
2017-10-05T03:57:05.153Z,70.80
2017-10-05T03:59:32.713Z,70.70
2017-10-05T04:02:00.175Z,70.70
2017-10-05T04:04:27.656Z,70.70
2017-10-05T04:06:55.129Z,70.70
2017-10-05T04:09:22.590Z,71.00
2017-10-05T04:11:50.062Z,71.00
2017-10-05T04:14:18.301Z,71.50
2017-10-05T04:16:45.758Z,71.40
2017-10-05T04:19:13.235Z,71.50
2017-10-05T04:21:40.697Z,71.60
2017-10-05T04:24:08.188Z,71.80
2017-10-05T04:26:35.653Z,72.00
2017-10-05T04:29:03.189Z,72.80
2017-10-05T04:31:31.444Z,71.70
2017-10-05T04:33:58.890Z,71.70
2017-10-05T04:36:26.337Z,71.80
2017-10-05T04:38:53.833Z,71.60
2017-10-05T04:41:21.338Z,71.50
2017-10-05T04:43:48.802Z,71.40
2017-10-05T04:46:16.285Z,71.30
2017-10-05T04:48:43.753Z,71.40
2017-10-05T04:51:11.241Z,71.50
2017-10-05T04:53:38.735Z,71.50
2017-10-05T04:56:06.204Z,71.70
2017-10-05T04:58:33.708Z,71.90
2017-10-05T05:01:01.970Z,72.30
2017-10-05T05:03:29.421Z,72.30
2017-10-05T05:05:56.902Z,72.30
2017-10-05T05:08:25.146Z,72.50
2017-10-05T05:10:52.646Z,72.50
2017-10-05T05:13:20.869Z,72.80
2017-10-05T05:15:48.329Z,72.90
2017-10-05T05:18:15.830Z,72.90
2017-10-05T05:20:44.117Z,73.10
2017-10-05T05:23:12.337Z,73.20
2017-10-05T05:25:39.829Z,73.20
2017-10-05T05:28:07.299Z,73.20
2017-10-05T05:30:34.786Z,73.20
2017-10-05T05:33:02.272Z,73.20
2017-10-05T05:35:29.717Z,73.30
2017-10-05T05:37:57.193Z,73.50
2017-10-05T05:40:24.673Z,73.60
2017-10-05T05:42:52.165Z,73.60
2017-10-05T05:45:19.643Z,73.80
2017-10-05T05:47:47.142Z,73.90
2017-10-05T05:50:14.629Z,74.10
2017-10-05T05:52:42.867Z,74.30
2017-10-05T05:55:10.350Z,74.20
2017-10-05T05:57:38.594Z,74.50
2017-10-05T06:00:06.057Z,74.50
2017-10-05T06:02:34.470Z,74.70
2017-10-05T06:05:01.937Z,74.80
2017-10-05T06:07:29.430Z,74.70
2017-10-05T06:09:56.893Z,74.80
2017-10-05T06:12:24.353Z,75.00
2017-10-05T06:14:51.850Z,75.20
2017-10-05T06:17:20.110Z,75.50
2017-10-05T06:19:47.594Z,75.50
2017-10-05T06:22:15.082Z,75.40
2017-10-05T06:24:42.550Z,75.50
2017-10-05T06:27:10.047Z,75.50
2017-10-05T06:29:37.512Z,75.50
2017-10-05T06:32:05.881Z,75.60
2017-10-05T06:34:33.380Z,75.60
2017-10-05T06:37:01.609Z,75.90
2017-10-05T06:39:29.069Z,75.80
2017-10-05T06:41:56.557Z,75.90
2017-10-05T06:44:24.045Z,75.90
2017-10-05T06:46:51.514Z,76.10
2017-10-05T06:49:18.977Z,76.00
2017-10-05T06:51:46.489Z,76.20
2017-10-05T06:54:13.957Z,76.20
2017-10-05T06:56:41.437Z,76.20
2017-10-05T06:59:08.885Z,76.20
2017-10-05T07:01:36.373Z,77.10
2017-10-05T07:04:03.838Z,76.50
2017-10-05T07:06:31.346Z,76.50
2017-10-05T07:08:59.597Z,76.80
2017-10-05T07:11:27.048Z,76.80
2017-10-05T07:13:54.533Z,76.70
2017-10-05T07:16:22.006Z,76.90
2017-10-05T07:18:50.270Z,77.10
2017-10-05T07:21:17.745Z,77.10
2017-10-05T07:23:45.985Z,77.30
2017-10-05T07:26:13.441Z,77.30
2017-10-05T07:28:40.933Z,77.50
2017-10-05T07:31:09.178Z,77.70
2017-10-05T07:33:36.649Z,77.70
2017-10-05T07:36:04.127Z,77.70
2017-10-05T07:38:32.382Z,78.00
2017-10-05T07:40:59.841Z,78.00
2017-10-05T07:43:27.297Z,78.20
2017-10-05T07:45:54.770Z,78.40
2017-10-05T07:48:23.009Z,78.80
2017-10-05T07:50:50.509Z,78.80
2017-10-05T07:53:18.721Z,79.20
2017-10-05T07:55:46.184Z,79.20
2017-10-05T07:58:13.657Z,79.50
2017-10-05T08:00:41.141Z,79.80
2017-10-05T08:03:08.593Z,80.10
2017-10-05T08:05:36.081Z,80.30
2017-10-05T08:08:04.332Z,80.80
2017-10-05T08:10:31.809Z,80.80
2017-10-05T08:13:00.058Z,81.00
2017-10-05T08:15:27.510Z,80.90
2017-10-05T08:17:54.979Z,81.00
2017-10-05T08:20:22.452Z,81.00
2017-10-05T08:22:50.721Z,81.10
2017-10-05T08:25:18.169Z,81.10
2017-10-05T08:27:45.649Z,80.90
2017-10-05T08:30:13.886Z,81.10
2017-10-05T08:32:41.361Z,81.10
2017-10-05T08:35:08.863Z,81.20
2017-10-05T08:37:36.333Z,80.70
2017-10-05T08:40:03.799Z,80.60
2017-10-05T08:42:31.279Z,80.40
2017-10-05T08:44:58.749Z,80.30
2017-10-05T08:47:26.245Z,79.90
2017-10-05T08:49:53.716Z,79.90
2017-10-05T08:52:21.197Z,79.50
2017-10-05T08:54:48.650Z,79.50
2017-10-05T08:57:16.130Z,79.30
2017-10-05T08:59:43.589Z,78.60
2017-10-05T09:02:11.058Z,78.90
2017-10-05T09:04:38.565Z,79.50
2017-10-05T09:07:06.008Z,79.50
2017-10-05T09:09:34.304Z,79.90
2017-10-05T09:12:01.777Z,79.70
2017-10-05T09:14:29.241Z,79.60
2017-10-05T09:16:56.713Z,78.40
2017-10-05T09:19:24.185Z,78.40
2017-10-05T09:21:51.662Z,78.10
2017-10-05T09:24:19.121Z,77.40
2017-10-05T09:26:47.349Z,76.30
2017-10-05T09:29:14.826Z,76.20
2017-10-05T09:31:42.310Z,76.20
2017-10-05T09:34:09.798Z,76.60
2017-10-05T09:36:37.278Z,75.90
2017-10-05T09:39:04.798Z,76.00
2017-10-05T09:41:33.077Z,74.70
2017-10-05T09:44:00.521Z,74.40
2017-10-05T09:46:27.981Z,73.40
2017-10-05T09:48:56.234Z,71.60
2017-10-05T09:51:23.689Z,71.50
2017-10-05T09:53:51.186Z,71.50
2017-10-05T09:56:19.410Z,71.00
2017-10-05T09:58:46.861Z,70.90
2017-10-05T10:01:14.344Z,69.50
2017-10-05T10:03:41.794Z,69.50
2017-10-05T10:06:10.468Z,68.80
2017-10-05T10:08:37.985Z,68.00
2017-10-05T10:11:06.228Z,66.80
2017-10-05T10:13:33.682Z,66.70
2017-10-05T10:16:01.140Z,67.70
2017-10-05T10:18:28.626Z,66.80
2017-10-05T10:20:56.850Z,65.20
2017-10-05T10:23:24.304Z,65.20
2017-10-05T10:25:51.772Z,65.60
2017-10-05T10:28:19.228Z,63.80
2017-10-05T10:30:46.727Z,64.80
2017-10-05T10:33:14.178Z,64.50
2017-10-05T10:35:41.643Z,65.20
2017-10-05T10:38:10.818Z,63.20
2017-10-05T10:40:38.273Z,63.20
2017-10-05T10:43:05.729Z,63.70
2017-10-05T10:45:33.211Z,63.30
2017-10-05T10:48:00.718Z,64.70
2017-10-05T10:50:28.166Z,63.50
2017-10-05T10:52:55.671Z,64.50
2017-10-05T10:55:23.129Z,65.40
2017-10-05T10:57:50.581Z,66.70
2017-10-05T11:00:18.089Z,67.80
2017-10-05T11:02:45.541Z,67.70
2017-10-05T11:05:13.781Z,67.10
2017-10-05T11:07:41.235Z,67.10
2017-10-05T11:10:08.733Z,66.80
2017-10-05T11:12:36.964Z,66.00
2017-10-05T11:15:04.422Z,65.80
2017-10-05T11:17:31.889Z,66.30
2017-10-05T11:19:59.349Z,65.00
2017-10-05T11:22:28.030Z,64.20
2017-10-05T11:24:55.501Z,64.20
2017-10-05T11:27:23.089Z,62.70
2017-10-05T11:29:50.646Z,62.00
2017-10-05T11:32:18.885Z,61.30
2017-10-05T11:34:46.361Z,61.10
2017-10-05T11:37:13.845Z,61.80
2017-10-05T11:39:41.294Z,60.70
2017-10-05T11:42:09.205Z,61.80
2017-10-05T11:44:36.690Z,62.70
2017-10-05T11:47:04.142Z,63.20
2017-10-05T11:49:32.369Z,63.60
2017-10-05T11:51:59.848Z,63.60
2017-10-05T11:54:28.077Z,65.10
2017-10-05T11:56:55.542Z,64.50
2017-10-05T11:59:22.990Z,63.90
2017-10-05T12:01:50.468Z,64.00
2017-10-05T12:04:17.957Z,64.20
2017-10-05T12:06:45.409Z,63.80
2017-10-05T12:09:13.069Z,64.00
2017-10-05T12:11:40.528Z,63.70
2017-10-05T12:14:07.984Z,63.40
2017-10-05T12:16:35.453Z,63.00
2017-10-05T12:19:02.982Z,61.90
2017-10-05T12:21:31.235Z,60.50
2017-10-05T12:23:58.721Z,60.30
2017-10-05T12:26:26.174Z,59.30
2017-10-05T12:28:54.448Z,58.30
2017-10-05T12:31:22.686Z,58.40
2017-10-05T12:33:50.174Z,58.40
2017-10-05T12:36:18.393Z,58.20
2017-10-05T12:38:45.929Z,58.10
2017-10-05T12:41:14.149Z,56.90
2017-10-05T12:43:41.633Z,56.90
2017-10-05T12:46:09.077Z,56.20
2017-10-05T12:48:36.525Z,55.30
2017-10-05T12:51:04.005Z,54.40
2017-10-05T12:53:31.461Z,53.80
2017-10-05T12:55:59.062Z,54.20
2017-10-05T12:58:26.510Z,54.10
2017-10-05T13:00:53.973Z,54.60
2017-10-05T13:03:21.457Z,54.50
2017-10-05T13:05:48.916Z,54.20
2017-10-05T13:08:16.371Z,53.70
2017-10-05T13:10:43.869Z,54.10
2017-10-05T13:13:11.317Z,53.90
2017-10-05T13:15:38.781Z,54.10
2017-10-05T13:18:06.275Z,52.80
2017-10-05T13:20:33.729Z,52.80
2017-10-05T13:23:01.211Z,48.90
2017-10-05T13:25:30.226Z,47.60
2017-10-05T13:27:57.710Z,47.50
2017-10-05T13:30:25.157Z,45.70
2017-10-05T13:32:52.636Z,44.10
2017-10-05T13:35:20.081Z,44.30
2017-10-05T13:37:47.565Z,41.50
2017-10-05T13:40:15.785Z,37.60
2017-10-05T13:42:43.234Z,37.50
2017-10-05T13:45:10.734Z,36.80
2017-10-05T13:47:38.185Z,35.10
2017-10-05T13:50:05.674Z,35.90
2017-10-05T13:52:33.917Z,36.20
2017-10-05T13:55:01.409Z,36.20
2017-10-05T13:57:30.573Z,39.30
2017-10-05T13:59:58.026Z,39.30
2017-10-05T14:02:25.506Z,40.90
2017-10-05T14:04:53.008Z,39.90
2017-10-05T14:07:20.472Z,39.20
2017-10-05T14:09:47.933Z,39.80
2017-10-05T14:12:15.410Z,40.80
2017-10-05T14:14:42.897Z,42.60
2017-10-05T14:17:10.352Z,44.10
2017-10-05T14:19:37.837Z,41.80
2017-10-05T14:22:05.318Z,40.90
2017-10-05T14:24:32.781Z,41.80
2017-10-05T14:27:00.311Z,40.70
2017-10-05T14:29:27.801Z,39.50
2017-10-05T14:31:55.266Z,37.40
2017-10-05T14:34:22.716Z,35.10
2017-10-05T14:36:50.208Z,35.00
2017-10-05T14:39:17.669Z,37.00
2017-10-05T14:41:45.119Z,38.70
2017-10-05T14:44:12.609Z,39.20
2017-10-05T14:46:40.834Z,41.00
2017-10-05T14:49:08.332Z,41.00
2017-10-05T14:51:35.825Z,42.20
2017-10-05T14:54:03.273Z,43.20
2017-10-05T14:56:30.725Z,44.60
2017-10-05T14:58:58.969Z,41.80
2017-10-05T15:01:26.417Z,41.80
2017-10-05T15:03:53.897Z,39.00
2017-10-05T15:06:21.349Z,36.90
2017-10-05T15:08:48.805Z,36.10
2017-10-05T15:11:16.282Z,35.60
2017-10-05T15:13:44.519Z,34.00
2017-10-05T15:16:11.999Z,33.90
2017-10-05T15:18:39.478Z,33.30
2017-10-05T15:21:07.719Z,32.30
2017-10-05T15:23:35.166Z,32.20
2017-10-05T15:26:02.630Z,32.40
2017-10-05T15:28:30.113Z,33.60
2017-10-05T15:30:57.601Z,32.80
2017-10-05T15:33:25.809Z,33.10
2017-10-05T15:35:53.309Z,33.00
2017-10-05T15:38:20.767Z,33.60
2017-10-05T15:40:49.005Z,38.90
2017-10-05T15:43:16.501Z,38.20
2017-10-05T15:45:43.956Z,40.60
2017-10-05T15:48:11.414Z,42.60
2017-10-05T15:50:38.895Z,44.30
2017-10-05T15:53:07.165Z,46.20
2017-10-05T15:55:35.397Z,47.10
2017-10-05T15:58:02.860Z,47.00
2017-10-05T16:00:30.318Z,48.20
2017-10-05T16:02:58.573Z,50.10
2017-10-05T16:05:26.050Z,50.00
2017-10-05T16:07:53.501Z,50.70
2017-10-05T16:10:21.022Z,51.10
2017-10-05T16:12:48.468Z,51.70
2017-10-05T16:15:16.713Z,52.60
2017-10-05T16:17:44.162Z,52.60
2017-10-05T16:20:11.638Z,52.80
2017-10-05T16:22:39.105Z,53.30
2017-10-05T16:25:06.564Z,53.50
2017-10-05T16:27:34.052Z,53.80
2017-10-05T16:30:02.871Z,54.20
2017-10-05T16:32:30.351Z,54.20
2017-10-05T16:34:57.829Z,54.40
2017-10-05T16:37:25.293Z,54.60
2017-10-05T16:39:53.585Z,54.90
2017-10-05T16:42:21.829Z,54.80
2017-10-05T16:44:49.289Z,54.90
2017-10-05T16:47:16.745Z,55.00
2017-10-05T16:49:44.226Z,55.20
2017-10-05T16:52:12.467Z,55.30
2017-10-05T16:54:39.916Z,55.40
2017-10-05T16:57:07.398Z,55.20
2017-10-05T16:59:35.009Z,54.90
2017-10-05T17:02:02.627Z,54.60
2017-10-05T17:04:30.098Z,54.50
2017-10-05T17:06:57.573Z,54.40
2017-10-05T17:09:25.112Z,54.50
2017-10-05T17:11:53.374Z,55.40
2017-10-05T17:14:20.853Z,55.40
2017-10-05T17:16:49.073Z,55.50
2017-10-05T17:19:16.561Z,55.50
2017-10-05T17:21:44.040Z,55.60
2017-10-05T17:24:11.573Z,55.60
2017-10-05T17:26:39.045Z,55.70
2017-10-05T17:29:06.517Z,55.80
2017-10-05T17:31:33.969Z,56.00
2017-10-05T17:34:01.462Z,56.60
2017-10-05T17:36:28.945Z,56.00
2017-10-05T17:38:56.448Z,56.20
2017-10-05T17:41:24.680Z,56.80
2017-10-05T17:43:52.148Z,56.70
2017-10-05T17:46:19.616Z,56.80
2017-10-05T17:48:47.118Z,56.90
2017-10-05T17:51:15.343Z,56.90
2017-10-05T17:53:42.793Z,56.90
2017-10-05T17:56:10.290Z,56.90
2017-10-05T17:58:38.526Z,57.10
2017-10-05T18:01:06.017Z,57.10
2017-10-05T18:03:34.473Z,57.30
2017-10-05T18:06:03.647Z,57.40
2017-10-05T18:08:31.105Z,57.40
2017-10-05T18:10:58.593Z,57.40
2017-10-05T18:13:26.082Z,57.50
2017-10-05T18:15:53.545Z,57.70
2017-10-05T18:18:21.036Z,57.70
2017-10-05T18:20:48.516Z,57.70
2017-10-05T18:23:15.985Z,57.90
2017-10-05T18:25:43.457Z,58.00
2017-10-05T18:28:10.909Z,58.20
2017-10-05T18:30:38.429Z,58.40
2017-10-05T18:33:05.881Z,58.60
2017-10-05T18:35:34.885Z,58.80
2017-10-05T18:38:02.371Z,58.80
2017-10-05T18:40:31.519Z,59.10
2017-10-05T18:42:59.044Z,59.20
2017-10-05T18:45:26.502Z,59.00
2017-10-05T18:47:53.988Z,59.00
2017-10-05T18:50:21.447Z,59.30
2017-10-05T18:52:48.900Z,59.40
2017-10-05T18:55:16.386Z,59.50
2017-10-05T18:57:43.979Z,59.50
2017-10-05T19:00:12.300Z,59.50
2017-10-05T19:02:39.748Z,59.70
2017-10-05T19:05:07.230Z,59.80
2017-10-05T19:07:34.866Z,59.80
2017-10-05T19:10:02.357Z,60.00
2017-10-05T19:12:29.810Z,59.90
2017-10-05T19:14:57.298Z,60.50
2017-10-05T19:17:24.754Z,59.80
2017-10-05T19:19:52.212Z,59.80
2017-10-05T19:22:19.782Z,59.80
2017-10-05T19:24:47.261Z,59.60
2017-10-05T19:27:14.983Z,59.70
2017-10-05T19:29:43.644Z,59.70
2017-10-05T19:32:11.185Z,59.70
2017-10-05T19:34:39.039Z,59.80
2017-10-05T19:37:07.120Z,59.90
2017-10-05T19:39:35.945Z,59.90
2017-10-05T19:42:03.552Z,59.80
2017-10-05T19:44:32.339Z,59.60
2017-10-05T19:47:00.645Z,59.60
2017-10-05T19:49:29.189Z,59.60
2017-10-05T19:51:56.693Z,59.60
2017-10-05T19:54:24.525Z,59.70
2017-10-05T19:56:52.009Z,59.70
2017-10-05T19:59:20.277Z,59.80
2017-10-05T20:01:47.842Z,59.80
2017-10-05T20:04:16.078Z,59.90
2017-10-05T20:06:44.301Z,60.10
2017-10-05T20:09:12.183Z,60.00
2017-10-05T20:11:40.119Z,60.20
2017-10-05T20:14:16.423Z,60.20
2017-10-05T20:16:59.699Z,60.20
2017-10-05T20:19:33.043Z,60.20
2017-10-05T20:22:15.411Z,60.20
2017-10-05T20:24:48.452Z,60.40
2017-10-05T20:27:21.727Z,60.50
2017-10-05T20:33:05.525Z,60.80
2017-10-05T20:35:33.002Z,60.70
2017-10-05T20:38:00.486Z,60.60
2017-10-05T20:40:27.947Z,60.70
2017-10-05T20:42:55.402Z,60.70
2017-10-05T20:45:22.902Z,60.70
2017-10-05T20:47:50.375Z,60.50
2017-10-05T20:50:17.828Z,60.70
2017-10-05T20:52:45.318Z,60.80
2017-10-05T20:55:12.782Z,60.70
2017-10-05T20:57:40.238Z,60.80
2017-10-05T21:00:07.734Z,60.50
2017-10-05T21:02:36.887Z,60.90
2017-10-05T21:05:04.350Z,60.90
2017-10-05T21:07:31.838Z,60.90
2017-10-05T21:09:59.399Z,61.00
2017-10-05T21:12:27.625Z,61.00
2017-10-05T21:14:55.113Z,60.90
2017-10-05T21:17:22.610Z,60.90
2017-10-05T21:19:50.069Z,60.80
2017-10-05T21:22:17.526Z,60.70
2017-10-05T21:24:45.017Z,60.90
2017-10-05T21:27:12.477Z,60.80
2017-10-05T21:29:39.940Z,60.70
2017-10-05T21:32:07.422Z,60.70
2017-10-05T21:34:34.921Z,60.50
2017-10-05T21:37:02.377Z,60.60
2017-10-05T21:39:29.918Z,60.70
2017-10-05T21:41:58.171Z,60.90
2017-10-05T21:44:25.650Z,60.90
2017-10-05T21:46:53.878Z,61.20
2017-10-05T21:49:21.378Z,61.20
2017-10-05T21:51:48.830Z,61.00
2017-10-05T21:54:16.291Z,60.80
2017-10-05T21:56:43.762Z,61.00
2017-10-05T21:59:12.022Z,61.10
2017-10-05T22:01:39.482Z,61.10
2017-10-05T22:04:07.483Z,61.20
2017-10-05T22:06:34.933Z,61.40
2017-10-05T22:09:02.510Z,61.60
2017-10-05T22:11:29.962Z,61.90
2017-10-05T22:13:57.454Z,61.60
2017-10-05T22:16:24.910Z,61.50
2017-10-05T22:18:52.369Z,61.60
2017-10-05T22:21:19.842Z,61.30
2017-10-05T22:23:47.302Z,61.30
2017-10-05T22:26:14.784Z,61.30
2017-10-05T22:28:42.258Z,61.50
2017-10-05T22:31:09.709Z,61.40
2017-10-05T22:33:38.014Z,61.50
2017-10-05T22:36:05.471Z,61.60
2017-10-05T22:38:33.007Z,61.70
2017-10-05T22:41:01.266Z,61.60
2017-10-05T22:43:28.722Z,61.50
2017-10-05T22:45:56.182Z,61.60
2017-10-05T22:48:23.658Z,61.60
2017-10-05T22:50:51.878Z,61.70
2017-10-05T22:53:19.363Z,61.60
2017-10-05T22:55:46.822Z,61.60
2017-10-05T22:58:14.279Z,61.70
2017-10-05T23:00:41.807Z,61.80
2017-10-05T23:03:09.264Z,61.80
2017-10-05T23:05:36.718Z,61.90
2017-10-05T23:08:04.210Z,61.80
2017-10-05T23:10:31.682Z,61.80
2017-10-05T23:12:59.138Z,61.80
2017-10-05T23:15:26.614Z,61.90
2017-10-05T23:17:54.096Z,62.00
2017-10-05T23:20:21.574Z,62.00
2017-10-05T23:22:49.033Z,62.10
2017-10-05T23:25:16.509Z,62.10
2017-10-05T23:27:43.963Z,62.10
2017-10-05T23:30:11.489Z,62.30
2017-10-05T23:32:39.012Z,62.30
2017-10-05T23:35:06.473Z,62.30
2017-10-05T23:37:33.990Z,62.40
2017-10-05T23:40:01.447Z,62.30
2017-10-05T23:42:28.902Z,62.40
2017-10-05T23:44:56.407Z,62.60
2017-10-05T23:47:24.651Z,62.60
2017-10-05T23:49:52.111Z,62.60
2017-10-05T23:52:19.598Z,62.60
2017-10-05T23:54:47.818Z,62.60
2017-10-05T23:57:15.295Z,62.60
2017-10-05T23:59:42.819Z,62.50
